Time;durP1;ratioP1;P1;durP2;ratioP2;P2;SDS_P1;SDS_P2;PMS_P1;PMS_P2;Temp;Humidity;BMP_temperature;BMP_pressure;BME280_temperature;BME280_humidity;BME280_pressure;Samples;Min_cycle;Max_cycle;Signal;HPM_P1;HPM_P2
2023/06/17 04:01:40;;;;;;;16.40;10.80;;;16.60;99.90;;;;;;5394833;23;20486;-75
2023/06/17 04:04:07;;;;;;;18.10;11.13;;;16.60;99.90;;;;;;4985762;28;20481;-75
2023/06/17 04:06:34;;;;;;;19.83;10.43;;;16.60;99.90;;;;;;4984495;28;20463;-75
2023/06/17 04:09:02;;;;;;;15.57;11.30;;;16.60;99.90;;;;;;4990027;28;21016;-75
2023/06/17 04:11:30;;;;;;;14.77;8.30;;;16.70;99.90;;;;;;4979439;28;20550;-75
2023/06/17 04:13:57;;;;;;;15.20;11.90;;;16.70;99.90;;;;;;4999208;23;20503;-69
2023/06/17 04:16:24;;;;;;;18.50;12.90;;;16.70;99.90;;;;;;4990286;28;20805;-72
2023/06/17 04:18:52;;;;;;;19.53;11.30;;;16.80;99.90;;;;;;4989375;28;20466;-71
2023/06/17 04:21:19;;;;;;;13.27;10.60;;;16.80;99.90;;;;;;4989104;28;20506;-71
2023/06/17 04:23:46;;;;;;;26.03;14.57;;;16.80;99.90;;;;;;4989777;28;20562;-69
2023/06/17 04:26:15;;;;;;;14.60;10.40;;;16.80;99.90;;;;;;4980638;28;20543;-70
2023/06/17 04:28:42;;;;;;;22.03;10.17;;;16.80;99.90;;;;;;4970987;28;20475;-69
2023/06/17 04:31:10;;;;;;;13.33;10.53;;;16.80;99.90;;;;;;4974646;28;20831;-70
2023/06/17 04:33:38;;;;;;;15.80;10.97;;;16.80;99.90;;;;;;4969009;28;20467;-70
2023/06/17 04:36:08;;;;;;;17.57;12.50;;;16.80;99.90;;;;;;4970615;28;20495;-70
2023/06/17 04:38:36;;;;;;;17.10;11.00;;;16.80;99.90;;;;;;4971059;28;20490;-70
2023/06/17 04:41:04;;;;;;;14.80;10.20;;;16.90;99.90;;;;;;4967413;28;20468;-69
2023/06/17 04:43:33;;;;;;;24.00;12.70;;;16.90;99.90;;;;;;4969960;28;20479;-70
2023/06/17 04:46:00;;;;;;;18.10;11.37;;;16.80;99.90;;;;;;4970548;28;20468;-69
2023/06/17 04:48:28;;;;;;;23.23;13.87;;;16.80;99.90;;;;;;4969973;28;20876;-70
2023/06/17 04:50:55;;;;;;;19.23;12.17;;;16.80;99.90;;;;;;4966335;28;20468;-71
2023/06/17 04:53:23;;;;;;;27.27;10.83;;;16.90;99.90;;;;;;4961599;28;20467;-69
2023/06/17 04:55:50;;;;;;;12.77;10.37;;;16.90;99.90;;;;;;4969711;28;20549;-70
2023/06/17 04:58:17;;;;;;;16.57;11.50;;;17.00;99.90;;;;;;4962792;28;20471;-69
2023/06/17 05:00:44;;;;;;;23.03;12.20;;;16.90;99.90;;;;;;4969427;28;20472;-69
2023/06/17 05:03:11;;;;;;;19.90;11.73;;;16.90;99.90;;;;;;4973312;28;20472;-72
2023/06/17 05:05:37;;;;;;;26.93;10.97;;;16.90;99.90;;;;;;4973548;28;20518;-70
2023/06/17 05:08:04;;;;;;;23.40;9.30;;;16.90;99.90;;;;;;4970478;28;20618;-69
2023/06/17 05:10:32;;;;;;;17.80;11.70;;;17.00;99.90;;;;;;4973305;28;20491;-71
2023/06/17 05:12:59;;;;;;;16.60;10.40;;;17.00;99.90;;;;;;4959069;28;20492;-72
2023/06/17 05:15:26;;;;;;;15.13;10.97;;;17.00;99.90;;;;;;4973034;28;20527;-70
2023/06/17 05:17:53;;;;;;;20.97;9.97;;;17.00;99.90;;;;;;4971649;28;20467;-70
2023/06/17 05:20:19;;;;;;;14.70;9.57;;;17.00;99.90;;;;;;4967403;28;20501;-70
2023/06/17 05:22:46;;;;;;;13.70;9.90;;;17.10;99.90;;;;;;4969488;28;20475;-70
2023/06/17 05:25:13;;;;;;;14.00;9.70;;;17.00;99.90;;;;;;4966849;28;20511;-69
2023/06/17 05:27:41;;;;;;;16.33;8.53;;;17.10;99.90;;;;;;4963356;28;20494;-71
2023/06/17 05:30:08;;;;;;;10.53;7.67;;;17.10;99.90;;;;;;4970162;28;20572;-71
2023/06/17 05:32:35;;;;;;;14.43;9.60;;;17.10;99.90;;;;;;4972914;28;20538;-73
2023/06/17 05:35:02;;;;;;;12.90;8.60;;;17.20;99.90;;;;;;4971828;28;21024;-73
2023/06/17 05:37:29;;;;;;;9.90;8.90;;;17.20;99.90;;;;;;4970579;28;20463;-69
2023/06/17 05:39:55;;;;;;;11.10;9.97;;;17.20;99.90;;;;;;4968717;28;20475;-71
2023/06/17 05:42:22;;;;;;;14.53;12.00;;;17.30;99.90;;;;;;4964859;28;20479;-70
2023/06/17 05:44:50;;;;;;;12.40;8.97;;;17.30;99.90;;;;;;4967498;28;20491;-70
2023/06/17 05:47:17;;;;;;;12.17;7.93;;;17.30;99.90;;;;;;4972940;28;20965;-70
2023/06/17 05:49:44;;;;;;;17.63;10.57;;;17.20;99.90;;;;;;4964341;28;20843;-71
2023/06/17 05:52:11;;;;;;;13.00;10.20;;;17.30;99.90;;;;;;4968642;28;21005;-71
2023/06/17 05:54:38;;;;;;;13.33;10.20;;;17.30;99.90;;;;;;4971987;28;20542;-70
2023/06/17 05:57:05;;;;;;;12.77;9.97;;;17.40;99.90;;;;;;4973126;28;20464;-71
2023/06/17 05:59:32;;;;;;;15.17;8.40;;;17.40;99.90;;;;;;4970888;28;20464;-71
2023/06/17 06:02:00;;;;;;;9.40;8.17;;;17.40;99.90;;;;;;4970224;28;20471;-71
2023/06/17 06:04:27;;;;;;;10.30;9.23;;;17.40;99.90;;;;;;4972037;28;20610;-71
2023/06/17 06:06:54;;;;;;;16.23;11.30;;;17.50;99.90;;;;;;4970090;28;20488;-70
2023/06/17 06:09:21;;;;;;;22.73;8.97;;;17.50;99.90;;;;;;4968020;28;20973;-71
2023/06/17 06:11:47;;;;;;;11.13;8.43;;;17.50;99.90;;;;;;4966393;28;20473;-70
2023/06/17 06:14:15;;;;;;;13.47;10.10;;;17.60;99.90;;;;;;4970214;28;20498;-71
2023/06/17 06:16:41;;;;;;;15.23;9.57;;;17.70;99.90;;;;;;4973728;28;20534;-70
2023/06/17 06:19:09;;;;;;;13.90;10.80;;;17.70;99.90;;;;;;4973550;28;20464;-70
2023/06/17 06:21:36;;;;;;;17.20;10.50;;;17.70;99.90;;;;;;4972439;28;20899;-70
2023/06/17 06:24:03;;;;;;;11.00;9.90;;;17.70;99.90;;;;;;4964055;28;21031;-71
2023/06/17 06:26:30;;;;;;;14.30;8.10;;;17.70;99.90;;;;;;4963502;28;21031;-70
2023/06/17 06:28:56;;;;;;;14.90;9.20;;;17.60;99.90;;;;;;4964227;28;20492;-70
2023/06/17 06:31:23;;;;;;;15.43;8.50;;;17.70;99.90;;;;;;4971771;28;20467;-70
2023/06/17 06:33:50;;;;;;;9.93;8.93;;;17.70;99.90;;;;;;4972083;28;20963;-71
2023/06/17 06:36:18;;;;;;;10.93;8.50;;;17.70;99.90;;;;;;4972870;28;20467;-70
2023/06/17 06:38:44;;;;;;;11.43;7.30;;;17.80;99.90;;;;;;4972923;28;20826;-70
2023/06/17 06:41:11;;;;;;;10.47;9.40;;;17.80;99.90;;;;;;4970239;28;20476;-72
2023/06/17 06:43:38;;;;;;;8.23;7.13;;;17.90;99.90;;;;;;4977937;28;20479;-71
2023/06/17 06:46:04;;;;;;;12.73;8.43;;;17.90;99.90;;;;;;4972196;28;20467;-70
2023/06/17 06:48:31;;;;;;;8.50;7.70;;;17.90;99.90;;;;;;4971803;28;20558;-74
2023/06/17 06:50:58;;;;;;;14.00;7.63;;;17.80;99.90;;;;;;4970680;28;20621;-70
2023/06/17 06:53:26;;;;;;;14.40;8.50;;;17.80;99.90;;;;;;4963521;28;20471;-70
2023/06/17 06:55:53;;;;;;;12.80;9.47;;;17.80;99.90;;;;;;4972188;28;20472;-71
2023/06/17 06:58:20;;;;;;;9.13;8.20;;;17.90;99.90;;;;;;4971648;28;20574;-71
2023/06/17 07:00:46;;;;;;;9.30;8.27;;;18.00;99.90;;;;;;4968996;28;20467;-71
2023/06/17 07:03:13;;;;;;;10.87;7.47;;;17.90;99.90;;;;;;4971962;28;20474;-71
2023/06/17 07:05:40;;;;;;;9.37;8.40;;;18.00;99.90;;;;;;4971884;28;21007;-71
2023/06/17 07:08:06;;;;;;;9.53;7.90;;;18.00;99.90;;;;;;4966597;28;20517;-71
2023/06/17 07:10:39;;;;;;;11.70;8.27;;;18.00;99.90;;;;;;4964957;28;20961;-69
2023/06/17 07:13:05;;;;;;;13.00;9.00;;;18.10;99.90;;;;;;4963999;28;20478;-71
2023/06/17 07:15:32;;;;;;;8.47;7.57;;;18.20;99.90;;;;;;4969010;28;20500;-71
2023/06/17 07:17:59;;;;;;;13.77;7.60;;;18.30;99.90;;;;;;4968226;28;20471;-70
2023/06/17 07:20:26;;;;;;;9.63;7.90;;;18.30;99.90;;;;;;4959222;28;20467;-70
2023/06/17 07:22:52;;;;;;;15.50;8.07;;;18.40;99.90;;;;;;4951844;28;20492;-71
2023/06/17 07:25:19;;;;;;;9.57;8.57;;;18.50;99.90;;;;;;4965050;28;20507;-70
2023/06/17 07:27:48;;;;;;;8.60;7.77;;;18.60;99.90;;;;;;4970834;28;20955;-70
2023/06/17 07:30:15;;;;;;;11.80;9.00;;;18.60;99.90;;;;;;4970636;28;20561;-69
2023/06/17 07:32:41;;;;;;;12.73;7.83;;;18.70;99.90;;;;;;4967282;28;20479;-69
2023/06/17 07:35:08;;;;;;;13.60;8.27;;;18.60;99.90;;;;;;4971515;28;20988;-69
2023/06/17 07:37:35;;;;;;;7.57;6.90;;;18.60;99.90;;;;;;4971381;28;20467;-69
2023/06/17 07:40:04;;;;;;;10.77;8.53;;;18.70;99.90;;;;;;4964678;28;20472;-72
2023/06/17 07:42:31;;;;;;;8.07;7.27;;;18.80;99.90;;;;;;4969016;28;20515;-70
2023/06/17 07:44:59;;;;;;;9.47;8.60;;;18.80;99.90;;;;;;4967441;28;20487;-70
2023/06/17 07:47:26;;;;;;;8.20;7.43;;;18.90;99.90;;;;;;4971442;28;20456;-70
2023/06/17 07:49:53;;;;;;;9.20;7.90;;;19.00;99.90;;;;;;4970899;28;20553;-70
2023/06/17 07:52:19;;;;;;;11.43;9.30;;;19.00;99.90;;;;;;4958843;28;20835;-70
2023/06/17 07:54:47;;;;;;;8.77;7.93;;;19.10;99.90;;;;;;4958711;28;20504;-71
2023/06/17 07:57:14;;;;;;;9.87;7.40;;;19.20;99.90;;;;;;4961460;28;20545;-71
2023/06/17 07:59:41;;;;;;;10.03;7.80;;;19.20;99.90;;;;;;4965554;28;20460;-71
2023/06/17 08:02:09;;;;;;;7.57;6.90;;;19.40;99.90;;;;;;4963541;28;20583;-71
2023/06/17 08:04:36;;;;;;;8.50;7.70;;;19.40;99.90;;;;;;4964531;28;20479;-71
2023/06/17 08:07:03;;;;;;;8.60;7.80;;;19.40;99.90;;;;;;4969810;28;20479;-72
2023/06/17 08:09:29;;;;;;;12.70;7.10;;;19.60;99.90;;;;;;4967292;28;20868;-71
2023/06/17 08:11:57;;;;;;;10.50;7.70;;;19.60;99.90;;;;;;4963769;28;20476;-70
2023/06/17 08:14:24;;;;;;;9.73;8.07;;;19.70;99.90;;;;;;4964135;28;20499;-71
2023/06/17 08:16:51;;;;;;;8.20;7.50;;;19.80;99.90;;;;;;4971261;28;20474;-70
2023/06/17 08:19:19;;;;;;;7.80;7.10;;;19.90;99.90;;;;;;4967230;28;20465;-71
2023/06/17 08:21:46;;;;;;;9.73;8.83;;;20.00;99.90;;;;;;4970468;28;20860;-72
2023/06/17 08:24:17;;;;;;;6.87;6.23;;;20.00;99.90;;;;;;4965250;28;20494;-70
2023/06/17 08:26:44;;;;;;;7.63;6.73;;;20.00;99.90;;;;;;4970289;28;20992;-71
2023/06/17 08:29:11;;;;;;;9.10;7.27;;;20.10;99.90;;;;;;4967529;28;20568;-70
2023/06/17 08:31:38;;;;;;;9.73;7.37;;;20.10;99.90;;;;;;4965077;28;20473;-72
2023/06/17 08:34:05;;;;;;;9.40;7.27;;;20.10;99.90;;;;;;4970126;28;20824;-71
2023/06/17 08:36:33;;;;;;;16.50;7.80;;;20.10;99.90;;;;;;4970114;28;20500;-71
2023/06/17 08:39:01;;;;;;;9.70;7.70;;;20.10;99.90;;;;;;4969337;28;20872;-72
2023/06/17 08:41:28;;;;;;;6.90;6.27;;;20.20;99.90;;;;;;4963898;28;20464;-71
2023/06/17 08:43:57;;;;;;;7.20;6.60;;;20.20;99.90;;;;;;4968794;28;20469;-70
2023/06/17 08:46:25;;;;;;;7.00;6.30;;;20.20;99.90;;;;;;4973675;28;20528;-69
2023/06/17 08:48:53;;;;;;;8.40;7.20;;;20.30;99.90;;;;;;4974345;28;20487;-71
2023/06/17 08:51:20;;;;;;;8.80;7.97;;;20.40;99.90;;;;;;4972986;28;20568;-70
2023/06/17 08:53:50;;;;;;;7.80;6.97;;;20.40;99.90;;;;;;4974313;28;20509;-70
2023/06/17 08:56:17;;;;;;;8.13;6.37;;;20.60;99.90;;;;;;4972175;28;20979;-70
2023/06/17 08:58:44;;;;;;;7.40;6.80;;;20.70;99.90;;;;;;4968728;28;21005;-69
2023/06/17 09:01:11;;;;;;;6.83;6.23;;;20.80;99.90;;;;;;4970760;28;20580;-72
2023/06/17 09:03:41;;;;;;;6.07;5.53;;;20.90;99.90;;;;;;4971842;28;20490;-70
2023/06/17 09:06:16;;;;;;;8.07;7.43;;;21.00;99.90;;;;;;4969784;28;20473;-69
2023/06/17 09:08:43;;;;;;;7.00;6.40;;;21.20;99.90;;;;;;4974025;28;20482;-69
2023/06/17 09:11:12;;;;;;;5.33;5.07;;;21.40;99.90;;;;;;4967507;28;20477;-71
2023/06/17 09:13:38;;;;;;;5.80;5.30;;;22.00;99.90;;;;;;4971688;28;20474;-69
2023/06/17 09:16:05;;;;;;;6.23;5.80;;;22.50;99.90;;;;;;4973784;28;20472;-70
2023/06/17 09:18:33;;;;;;;6.30;5.90;;;22.50;99.90;;;;;;4972053;28;20825;-70
2023/06/17 09:20:59;;;;;;;6.60;6.20;;;22.80;99.90;;;;;;4972802;28;20518;-71
2023/06/17 09:23:26;;;;;;;6.70;6.20;;;22.70;99.90;;;;;;4973043;28;20472;-70
2023/06/17 09:26:01;;;;;;;7.30;5.57;;;22.70;99.90;;;;;;4972435;28;20502;-70
2023/06/17 09:28:29;;;;;;;6.50;6.00;;;22.70;99.90;;;;;;4972174;28;20491;-71
2023/06/17 09:30:59;;;;;;;6.23;5.83;;;22.60;99.90;;;;;;4967646;28;20473;-71
2023/06/17 09:33:27;;;;;;;6.47;6.07;;;22.70;99.90;;;;;;4968513;28;20500;-71
2023/06/17 09:35:59;;;;;;;5.87;5.33;;;22.70;99.90;;;;;;4972980;28;20502;-71
2023/06/17 09:38:27;;;;;;;5.20;4.80;;;22.60;99.90;;;;;;4973295;28;20473;-70
2023/06/17 09:40:54;;;;;;;6.43;5.90;;;22.50;99.90;;;;;;4967017;28;20480;-70
2023/06/17 09:43:24;;;;;;;6.30;5.80;;;22.50;99.90;;;;;;4970539;28;20471;-69
2023/06/17 09:45:56;;;;;;;5.93;5.53;;;22.90;99.90;;;;;;4972413;28;20491;-70
2023/06/17 09:48:29;;;;;;;7.07;6.37;;;23.40;99.90;;;;;;4973036;28;20553;-70
2023/06/17 09:50:57;;;;;;;6.53;5.93;;;23.60;99.90;;;;;;4971725;28;20594;-72
2023/06/17 09:53:27;;;;;;;6.33;5.63;;;23.80;99.90;;;;;;4972124;28;20852;-72
2023/06/17 09:55:56;;;;;;;5.60;5.20;;;23.80;99.90;;;;;;4972313;28;20499;-70
2023/06/17 09:58:24;;;;;;;5.90;5.50;;;23.90;99.90;;;;;;4972593;28;20469;-70
2023/06/17 10:00:52;;;;;;;6.77;6.17;;;23.80;99.90;;;;;;4970927;28;20482;-69
2023/06/17 10:03:20;;;;;;;6.33;5.90;;;23.70;99.90;;;;;;4969556;28;20563;-70
2023/06/17 10:05:53;;;;;;;5.83;5.37;;;23.50;99.90;;;;;;4966817;28;20485;-69
2023/06/17 10:08:21;;;;;;;5.20;4.70;;;23.30;99.90;;;;;;4971356;28;20460;-71
2023/06/17 10:10:49;;;;;;;6.83;6.27;;;23.30;99.90;;;;;;4966406;28;20577;-70
2023/06/17 10:13:18;;;;;;;6.10;5.70;;;23.40;99.90;;;;;;4969078;28;20476;-70
2023/06/17 10:15:46;;;;;;;6.10;5.60;;;23.30;99.90;;;;;;4964373;28;20589;-70
2023/06/17 10:18:14;;;;;;;5.83;5.33;;;23.20;99.90;;;;;;4964943;28;20475;-73
2023/06/17 10:20:42;;;;;;;7.83;6.57;;;23.30;99.90;;;;;;4973371;28;20474;-72
2023/06/17 10:23:10;;;;;;;5.97;5.53;;;23.50;99.90;;;;;;4971109;28;20957;-70
2023/06/17 10:25:40;;;;;;;5.37;4.97;;;23.70;99.90;;;;;;4961552;28;20616;-72
2023/06/17 10:28:06;;;;;;;6.63;6.10;;;23.80;99.90;;;;;;4961354;28;20533;-70
2023/06/17 10:30:35;;;;;;;6.50;5.97;;;23.70;99.90;;;;;;4972313;28;20499;-70
2023/06/17 10:33:03;;;;;;;5.90;5.50;;;23.60;99.90;;;;;;4972584;28;20481;-71
2023/06/17 10:35:40;;;;;;;6.13;5.70;;;23.40;99.90;;;;;;4965405;28;20851;-69
2023/06/17 10:38:10;;;;;;;7.90;7.33;;;23.30;99.90;;;;;;4969358;28;20846;-71
2023/06/17 10:40:47;;;;;;;6.83;6.23;;;23.10;99.90;;;;;;4969799;28;21001;-71
2023/06/17 10:43:19;;;;;;;8.70;6.00;;;23.00;99.90;;;;;;4971713;28;20473;-69
2023/06/17 10:45:50;;;;;;;6.57;5.97;;;23.20;99.90;;;;;;4963275;28;20497;-70
2023/06/17 10:48:20;;;;;;;6.50;6.00;;;23.40;99.90;;;;;;4959454;28;20467;-69
2023/06/17 10:50:52;;;;;;;9.97;6.97;;;23.40;99.90;;;;;;4972889;28;20493;-70
2023/06/17 10:53:26;;;;;;;7.43;6.77;;;23.40;99.90;;;;;;4971133;28;20839;-69
2023/06/17 10:55:52;;;;;;;7.17;6.47;;;23.40;99.90;;;;;;4970695;28;20589;-70
2023/06/17 10:58:19;;;;;;;6.60;6.10;;;23.40;99.90;;;;;;4963531;28;20481;-71
2023/06/17 11:00:46;;;;;;;7.73;7.03;;;23.30;99.90;;;;;;4972009;28;20493;-71
2023/06/17 11:03:15;;;;;;;7.07;6.57;;;23.40;99.90;;;;;;4971805;28;20492;-69
2023/06/17 11:05:42;;;;;;;7.20;6.50;;;23.20;99.90;;;;;;4972633;28;20490;-70
2023/06/17 11:08:09;;;;;;;6.10;5.70;;;23.00;99.90;;;;;;4971772;28;20473;-69
2023/06/17 11:10:37;;;;;;;6.33;5.83;;;22.90;99.90;;;;;;4957635;28;20508;-70
2023/06/17 11:13:04;;;;;;;7.47;6.00;;;22.90;99.90;;;;;;4962601;28;20472;-71
2023/06/17 11:15:31;;;;;;;6.37;5.87;;;22.90;99.90;;;;;;4963452;28;20589;-69
2023/06/17 11:18:01;;;;;;;6.20;5.70;;;22.90;99.90;;;;;;4972137;28;20467;-69
2023/06/17 11:20:30;;;;;;;5.87;5.57;;;23.10;99.90;;;;;;4965822;28;20495;-69
2023/06/17 11:22:57;;;;;;;5.70;5.40;;;23.30;99.90;;;;;;4961614;28;20475;-72
2023/06/17 11:25:24;;;;;;;6.47;5.90;;;23.60;99.90;;;;;;4966607;28;20495;-69
2023/06/17 11:27:52;;;;;;;5.27;4.87;;;23.60;99.90;;;;;;4970846;28;20562;-69
2023/06/17 11:30:20;;;;;;;6.77;6.37;;;23.70;99.90;;;;;;4968308;28;20844;-70
2023/06/17 11:32:49;;;;;;;5.80;5.40;;;23.70;99.90;;;;;;4970227;28;20480;-69
2023/06/17 11:35:17;;;;;;;6.40;5.90;;;23.60;99.90;;;;;;4970436;28;20513;-71
2023/06/17 11:37:47;;;;;;;7.00;6.40;;;23.60;99.90;;;;;;4964012;28;20481;-70
2023/06/17 11:40:15;;;;;;;6.27;5.77;;;23.60;99.90;;;;;;4969946;28;20795;-70
2023/06/17 11:42:42;;;;;;;6.60;6.10;;;23.70;99.90;;;;;;4963888;28;20494;-69
2023/06/17 11:45:10;;;;;;;3.93;3.73;;;23.80;99.90;;;;;;4968627;28;20486;-71
2023/06/17 11:47:37;;;;;;;5.00;4.70;;;23.90;99.90;;;;;;4967177;28;20469;-70
2023/06/17 11:50:09;;;;;;;5.00;4.60;;;24.00;99.90;;;;;;4968189;28;20486;-70
2023/06/17 11:52:36;;;;;;;5.90;5.40;;;24.00;99.90;;;;;;4968917;28;20463;-70
2023/06/17 11:55:05;;;;;;;5.50;5.10;;;24.00;99.90;;;;;;4954517;28;20494;-70
2023/06/17 11:57:32;;;;;;;5.60;5.10;;;24.10;99.90;;;;;;4968809;28;20461;-70
2023/06/17 12:00:04;;;;;;;5.30;4.90;;;24.00;99.90;;;;;;4959737;28;20545;-71
2023/06/17 12:02:35;;;;;;;4.37;3.97;;;24.20;99.90;;;;;;4968481;28;20470;-70
2023/06/17 12:05:02;;;;;;;11.63;4.87;;;24.20;99.90;;;;;;4959870;28;20484;-70
2023/06/17 12:07:30;;;;;;;4.53;4.13;;;24.40;99.90;;;;;;4959783;28;20973;-72
2023/06/17 12:09:57;;;;;;;4.83;4.50;;;24.70;99.90;;;;;;4967813;28;20488;-71
2023/06/17 12:12:32;;;;;;;3.90;3.70;;;24.70;99.90;;;;;;4973185;28;20470;-71
2023/06/17 12:15:01;;;;;;;4.10;3.90;;;24.50;99.90;;;;;;4971903;28;20502;-71
2023/06/17 12:17:27;;;;;;;4.40;4.20;;;24.50;99.90;;;;;;4967106;28;20570;-71
2023/06/17 12:20:01;;;;;;;5.30;4.07;;;24.50;99.90;;;;;;4967143;28;20465;-71
2023/06/17 12:22:28;;;;;;;5.23;4.83;;;24.50;99.90;;;;;;4967336;28;20954;-70
2023/06/17 12:24:55;;;;;;;3.37;3.27;;;24.40;99.90;;;;;;4972801;28;20522;-71
2023/06/17 12:27:28;;;;;;;4.57;4.00;;;24.50;99.90;;;;;;4972913;28;20525;-70
2023/06/17 12:29:55;;;;;;;4.07;3.87;;;24.70;99.90;;;;;;4969716;28;20491;-70
2023/06/17 12:32:21;;;;;;;4.37;4.07;;;24.70;99.90;;;;;;4974968;28;20469;-69
2023/06/17 12:34:48;;;;;;;4.30;4.00;;;24.70;99.90;;;;;;4968264;28;20496;-71
2023/06/17 12:37:20;;;;;;;4.30;4.10;;;24.80;99.90;;;;;;4968218;28;20587;-70
2023/06/17 12:39:48;;;;;;;5.73;5.40;;;24.90;99.90;;;;;;4972758;28;20772;-69
2023/06/17 12:42:15;;;;;;;3.67;3.57;;;24.90;99.90;;;;;;4972223;28;21025;-70
2023/06/17 12:44:42;;;;;;;3.63;3.43;;;24.80;99.90;;;;;;4958675;28;20557;-70
2023/06/17 12:47:09;;;;;;;4.00;3.80;;;24.90;99.90;;;;;;4971389;28;20458;-70
2023/06/17 12:49:35;;;;;;;8.03;4.53;;;24.80;99.90;;;;;;4970383;28;20497;-70
2023/06/17 12:52:02;;;;;;;4.37;3.97;;;24.90;99.90;;;;;;4969552;28;20484;-71
2023/06/17 12:54:30;;;;;;;5.07;4.73;;;25.00;99.90;;;;;;4973812;28;20490;-69
2023/06/17 12:56:57;;;;;;;3.33;3.23;;;25.00;99.90;;;;;;4972835;28;20469;-71
2023/06/17 12:59:24;;;;;;;3.67;3.53;;;25.00;99.90;;;;;;4968373;28;20479;-70
2023/06/17 13:01:50;;;;;;;4.73;4.43;;;25.10;99.90;;;;;;4972407;28;20469;-70
2023/06/17 13:04:17;;;;;;;4.30;4.10;;;25.30;99.90;;;;;;4970935;28;20489;-70
2023/06/17 13:06:44;;;;;;;4.40;4.20;;;25.10;99.90;;;;;;4974238;28;20461;-70
2023/06/17 13:09:12;;;;;;;5.13;4.73;;;25.20;99.90;;;;;;4972672;28;20498;-70
2023/06/17 13:11:42;;;;;;;4.73;4.43;;;25.20;99.90;;;;;;4955368;28;20518;-70
2023/06/17 13:14:09;;;;;;;4.77;4.23;;;25.10;99.90;;;;;;4969510;28;21457;-70
2023/06/17 13:16:36;;;;;;;4.20;4.00;;;25.30;99.90;;;;;;4972669;28;20794;-70
2023/06/17 13:19:03;;;;;;;4.13;3.93;;;25.40;99.90;;;;;;4974267;28;20808;-70
2023/06/17 13:21:31;;;;;;;4.20;3.90;;;25.60;99.90;;;;;;4972240;28;20471;-70
2023/06/17 13:23:58;;;;;;;4.83;4.53;;;25.70;99.90;;;;;;4973130;28;20497;-70
2023/06/17 13:26:29;;;;;;;3.87;3.67;;;26.00;99.90;;;;;;4973708;28;20467;-71
2023/06/17 13:28:57;;;;;;;4.73;4.40;;;26.00;99.90;;;;;;4973510;28;20513;-70
2023/06/17 13:31:25;;;;;;;3.97;3.67;;;26.00;99.90;;;;;;4972541;28;20534;-70
2023/06/17 13:33:51;;;;;;;4.10;3.83;;;26.00;99.90;;;;;;4971706;28;20971;-70
2023/06/17 13:36:18;;;;;;;4.60;4.30;;;26.00;99.90;;;;;;4973500;28;20467;-70
2023/06/17 13:38:45;;;;;;;5.23;4.90;;;25.90;99.90;;;;;;4973921;28;20526;-70
2023/06/17 13:41:12;;;;;;;4.23;3.97;;;26.00;99.90;;;;;;4967973;28;20469;-70
2023/06/17 13:43:39;;;;;;;4.67;4.27;;;26.00;99.90;;;;;;4973135;28;20905;-71
2023/06/17 13:46:07;;;;;;;3.70;3.60;;;26.20;99.90;;;;;;4973904;28;20887;-70
2023/06/17 13:48:34;;;;;;;8.03;4.57;;;26.20;99.90;;;;;;4973067;28;20916;-70
2023/06/17 13:51:02;;;;;;;4.50;4.20;;;26.10;99.90;;;;;;4971226;28;20491;-70
2023/06/17 13:53:30;;;;;;;4.80;4.57;;;25.80;99.90;;;;;;4971066;28;20798;-70
2023/06/17 13:55:57;;;;;;;5.00;4.70;;;25.70;99.90;;;;;;4973552;28;20483;-70
2023/06/17 13:58:24;;;;;;;5.20;4.80;;;25.60;99.90;;;;;;4972875;28;20467;-69
2023/06/17 14:00:51;;;;;;;4.13;3.93;;;25.50;99.90;;;;;;4973519;28;20492;-70
2023/06/17 14:03:19;;;;;;;4.43;4.10;;;25.50;99.90;;;;;;4966740;28;20549;-70
2023/06/17 14:05:46;;;;;;;4.37;4.10;;;25.50;99.90;;;;;;4972971;28;20555;-69
2023/06/17 14:08:13;;;;;;;4.27;3.97;;;25.50;99.90;;;;;;4972428;28;20492;-69
2023/06/17 14:10:40;;;;;;;4.70;4.33;;;25.40;99.90;;;;;;4969965;28;20487;-69
2023/06/17 14:13:06;;;;;;;3.57;3.37;;;25.40;99.90;;;;;;4968546;28;20471;-69
2023/06/17 14:15:33;;;;;;;3.80;3.70;;;25.40;99.90;;;;;;4971781;28;20978;-69
2023/06/17 14:18:00;;;;;;;4.17;3.87;;;25.40;99.90;;;;;;4973200;28;20584;-69
2023/06/17 14:20:28;;;;;;;4.00;3.80;;;25.40;99.90;;;;;;4970735;28;20575;-69
2023/06/17 14:22:56;;;;;;;3.73;3.60;;;25.30;99.90;;;;;;4967167;28;20466;-69
2023/06/17 14:25:24;;;;;;;4.50;4.30;;;25.20;99.90;;;;;;4970120;28;20500;-70
2023/06/17 14:27:51;;;;;;;4.90;4.40;;;25.00;99.90;;;;;;4972180;28;20466;-70
2023/06/17 14:30:18;;;;;;;3.83;3.63;;;25.00;99.90;;;;;;4961317;28;20951;-69
2023/06/17 14:32:46;;;;;;;3.70;3.60;;;25.00;99.90;;;;;;4959107;28;20475;-70
2023/06/17 14:35:15;;;;;;;4.40;4.10;;;25.00;99.90;;;;;;4972622;28;20490;-69
2023/06/17 14:37:46;;;;;;;4.53;4.23;;;24.90;99.90;;;;;;4974193;28;20465;-70
2023/06/17 14:40:13;;;;;;;4.70;4.50;;;24.90;99.90;;;;;;4973745;28;20462;-69
2023/06/17 14:42:40;;;;;;;4.60;4.20;;;25.00;99.90;;;;;;4970307;28;20962;-70
2023/06/17 14:45:08;;;;;;;4.47;4.10;;;25.10;99.90;;;;;;4972320;28;20564;-69
2023/06/17 14:47:37;;;;;;;4.67;4.33;;;25.30;99.90;;;;;;4971807;28;20469;-69
2023/06/17 14:50:04;;;;;;;3.77;3.47;;;25.20;99.90;;;;;;4971950;28;20474;-69
2023/06/17 14:52:31;;;;;;;4.03;3.83;;;25.30;99.90;;;;;;4971659;28;20473;-69
2023/06/17 14:54:59;;;;;;;4.23;4.03;;;25.20;99.90;;;;;;4971896;28;21027;-70
2023/06/17 14:57:26;;;;;;;3.47;3.37;;;25.00;99.90;;;;;;4972582;28;20481;-70
2023/06/17 14:59:54;;;;;;;5.43;4.13;;;25.20;99.90;;;;;;4971720;28;20481;-70
2023/06/17 15:02:37;;;;;;;5.03;3.90;;;25.30;99.90;;;;;;4967890;28;20980;-70
2023/06/17 15:05:04;;;;;;;4.83;4.40;;;25.40;99.90;;;;;;4971453;28;21001;-70
2023/06/17 15:07:31;;;;;;;4.10;3.80;;;25.40;99.90;;;;;;4972503;28;20470;-70
2023/06/17 15:09:59;;;;;;;3.20;3.10;;;25.40;99.90;;;;;;4969828;28;20844;-70
2023/06/17 15:12:26;;;;;;;3.63;3.43;;;25.40;99.90;;;;;;4964956;28;20481;-70
2023/06/17 15:14:53;;;;;;;3.90;3.70;;;25.50;99.90;;;;;;4970760;28;20505;-71
2023/06/17 15:17:20;;;;;;;4.93;3.57;;;25.50;99.90;;;;;;4971798;28;20558;-70
2023/06/17 15:19:47;;;;;;;4.00;3.80;;;25.60;99.90;;;;;;4972098;28;20545;-71
2023/06/17 15:22:14;;;;;;;3.47;3.10;;;25.50;99.90;;;;;;4971503;28;20569;-71
2023/06/17 15:24:41;;;;;;;3.43;3.30;;;25.50;99.90;;;;;;4968011;28;20487;-71
2023/06/17 15:27:09;;;;;;;4.20;4.00;;;25.50;99.90;;;;;;4971067;28;20539;-70
2023/06/17 15:29:36;;;;;;;3.63;3.50;;;25.50;99.90;;;;;;4955264;28;20478;-70
2023/06/17 15:32:03;;;;;;;3.27;3.13;;;25.50;99.90;;;;;;4969248;28;21129;-70
2023/06/17 15:34:29;;;;;;;3.10;3.00;;;25.50;99.90;;;;;;4971089;28;20505;-70
2023/06/17 15:36:56;;;;;;;3.37;3.07;;;25.70;99.90;;;;;;4971637;28;20846;-70
2023/06/17 15:39:25;;;;;;;3.80;3.00;;;25.90;99.90;;;;;;4971778;28;20471;-70
2023/06/17 15:41:54;;;;;;;3.10;3.00;;;26.00;99.90;;;;;;4966431;28;20862;-70
2023/06/17 15:44:22;;;;;;;3.40;3.30;;;26.00;99.90;;;;;;4969543;28;20497;-70
2023/06/17 15:46:49;;;;;;;3.60;3.40;;;26.00;99.90;;;;;;4971739;28;20463;-70
2023/06/17 15:49:16;;;;;;;3.03;2.93;;;26.10;99.40;;;;;;4970729;28;20479;-70
2023/06/17 15:51:43;;;;;;;2.50;2.50;;;26.40;97.90;;;;;;4970084;28;20487;-70
2023/06/17 15:54:10;;;;;;;2.47;2.37;;;26.60;96.70;;;;;;4971330;28;20488;-70
2023/06/17 15:56:38;;;;;;;2.30;2.20;;;26.80;96.60;;;;;;4971861;28;20479;-71
2023/06/17 15:59:05;;;;;;;2.07;1.80;;;27.00;96.00;;;;;;4970196;28;20472;-70
2023/06/17 16:01:33;;;;;;;1.80;1.80;;;27.10;95.00;;;;;;4969870;28;20467;-71
2023/06/17 16:04:08;;;;;;;2.70;2.60;;;27.00;95.00;;;;;;4967783;28;20605;-70
2023/06/17 16:06:35;;;;;;;2.90;2.80;;;27.00;94.90;;;;;;4963393;28;20472;-70
2023/06/17 16:09:02;;;;;;;2.50;2.40;;;26.90;94.90;;;;;;4968268;28;20465;-71
2023/06/17 16:11:28;;;;;;;2.30;2.30;;;26.90;95.40;;;;;;4967318;28;20503;-70
2023/06/17 16:13:56;;;;;;;2.87;2.77;;;26.90;95.80;;;;;;4969128;28;20457;-70
2023/06/17 16:16:22;;;;;;;3.27;3.07;;;26.90;96.40;;;;;;4971132;28;20507;-70
2023/06/17 16:18:50;;;;;;;3.20;3.10;;;27.00;96.60;;;;;;4970850;28;20829;-70
2023/06/17 16:21:17;;;;;;;3.57;3.30;;;27.10;97.00;;;;;;4969272;28;20831;-69
2023/06/17 16:23:44;;;;;;;2.23;2.23;;;27.30;97.00;;;;;;4970264;28;20474;-69
2023/06/17 16:26:11;;;;;;;3.43;3.27;;;27.30;97.10;;;;;;4961513;28;20941;-69
2023/06/17 16:28:39;;;;;;;2.30;2.27;;;27.40;96.10;;;;;;4968667;28;20466;-69
2023/06/17 16:31:06;;;;;;;4.90;4.47;;;27.40;95.40;;;;;;4964796;28;20559;-69
2023/06/17 16:33:33;;;;;;;5.00;3.57;;;27.10;95.90;;;;;;4970215;28;20480;-71
2023/06/17 16:36:01;;;;;;;2.67;2.60;;;26.70;96.20;;;;;;4969855;28;20487;-69
2023/06/17 16:38:28;;;;;;;4.20;2.80;;;26.50;96.70;;;;;;4966312;28;20467;-69
2023/06/17 16:40:54;;;;;;;5.10;2.60;;;26.20;96.90;;;;;;4970016;28;20471;-69
2023/06/17 16:43:21;;;;;;;2.97;2.87;;;26.00;97.30;;;;;;4968247;28;20913;-69
2023/06/17 16:45:48;;;;;;;3.47;3.17;;;25.70;98.00;;;;;;4969233;28;20498;-69